Time;durP1;ratioP1;P1;durP2;ratioP2;P2;SDS_P1;SDS_P2;PMS_P1;PMS_P2;Temp;Humidity;BMP_temperature;BMP_pressure;BME280_temperature;BME280_humidity;BME280_pressure;Samples;Min_cycle;Max_cycle;Signal;HPM_P1;HPM_P2
2023/07/02 00:00:55;;;;;;;3.03;2.33;;;17.30;99.90;;;;;;5021475;28;20206;-89
2023/07/02 00:03:22;;;;;;;2.90;2.60;;;17.30;99.90;;;;;;5060854;28;20244;-89
2023/07/02 00:05:50;;;;;;;2.50;2.22;;;17.30;99.90;;;;;;5050195;28;20198;-90
2023/07/02 00:08:17;;;;;;;3.00;2.45;;;17.40;99.90;;;;;;5037079;28;20225;-88
2023/07/02 00:10:44;;;;;;;2.90;2.50;;;17.40;99.90;;;;;;5035504;28;20190;-90
2023/07/02 00:13:12;;;;;;;3.75;2.30;;;17.30;99.90;;;;;;5010526;28;20248;-90
2023/07/02 00:29:24;;;;;;;2.90;2.70;;;17.30;99.90;;;;;;5232537;22;20232;-90
2023/07/02 00:31:51;;;;;;;3.25;2.45;;;17.30;99.90;;;;;;5093531;28;20188;-88
2023/07/02 00:34:19;;;;;;;3.45;2.38;;;17.40;99.60;;;;;;5094611;28;20203;-90
2023/07/02 00:36:46;;;;;;;3.97;3.65;;;17.40;99.90;;;;;;5091585;28;20503;-88
2023/07/02 00:39:13;;;;;;;4.03;3.25;;;17.40;99.40;;;;;;5076735;28;20203;-89
2023/07/02 00:41:42;;;;;;;3.83;3.08;;;17.50;99.10;;;;;;5093997;28;20185;-89
2023/07/02 00:44:10;;;;;;;2.75;2.30;;;17.50;99.50;;;;;;5090046;28;20227;-89
2023/07/02 00:46:43;;;;;;;2.75;2.55;;;17.50;98.80;;;;;;5088210;28;20693;-90
2023/07/02 00:49:30;;;;;;;3.38;3.08;;;17.60;98.50;;;;;;5091380;28;20204;-89
2023/07/02 00:51:57;;;;;;;2.40;2.20;;;17.60;98.90;;;;;;5069291;28;20548;-89
2023/07/02 00:54:24;;;;;;;3.60;2.30;;;17.50;98.90;;;;;;5094999;28;20204;-89
2023/07/02 00:56:51;;;;;;;2.70;2.50;;;17.50;99.10;;;;;;5094746;28;20645;-89
2023/07/02 00:59:18;;;;;;;4.55;2.40;;;17.50;99.00;;;;;;5059956;28;20706;-89
2023/07/02 01:01:49;;;;;;;2.58;2.05;;;17.50;99.00;;;;;;5093517;28;20200;-90
2023/07/02 01:04:18;;;;;;;2.40;2.20;;;17.40;99.30;;;;;;5077108;28;20592;-87
2023/07/02 01:06:47;;;;;;;4.03;3.28;;;17.30;99.90;;;;;;5088848;28;20218;-90
2023/07/02 01:09:14;;;;;;;3.45;3.00;;;17.30;99.90;;;;;;5095006;28;20295;-87
2023/07/02 01:11:44;;;;;;;3.13;2.40;;;17.30;99.90;;;;;;5074764;28;20209;-89
2023/07/02 01:14:14;;;;;;;3.28;2.70;;;17.30;99.90;;;;;;5094833;28;20185;-90
2023/07/02 01:16:43;;;;;;;2.33;2.13;;;17.30;99.90;;;;;;5094315;28;20216;-90
2023/07/02 01:19:28;;;;;;;2.67;2.10;;;17.30;99.90;;;;;;5072951;28;20259;-89
2023/07/02 01:24:40;;;;;;;2.00;1.90;;;17.30;99.90;;;;;;5074117;28;20217;-89
2023/07/02 01:27:16;;;;;;;2.05;1.95;;;17.30;99.90;;;;;;5041366;28;20251;-89
2023/07/02 01:32:25;;;;;;;2.92;1.90;;;17.20;99.90;;;;;;5059016;28;20201;-89
2023/07/02 01:34:53;;;;;;;1.90;1.80;;;17.20;99.90;;;;;;5072783;28;20217;-89
2023/07/02 01:37:40;;;;;;;1.90;1.80;;;17.20;99.90;;;;;;5069153;28;20208;-89
2023/07/02 01:40:09;;;;;;;2.85;2.20;;;17.20;99.90;;;;;;5077587;28;20197;-89
2023/07/02 01:42:36;;;;;;;2.65;1.60;;;17.20;99.90;;;;;;5069744;28;20209;-89
2023/07/02 01:45:06;;;;;;;3.15;1.60;;;17.20;99.90;;;;;;5039729;28;20226;-88
2023/07/02 01:47:33;;;;;;;1.70;1.60;;;17.20;99.90;;;;;;5041369;28;20210;-90
2023/07/02 01:50:47;;;;;;;1.52;1.42;;;17.30;99.90;;;;;;5059988;28;20251;-90
2023/07/02 02:06:14;;;;;;;2.03;1.73;;;17.10;99.90;;;;;;5062134;28;20197;-89
2023/07/02 02:12:54;;;;;;;2.45;1.55;;;17.10;99.90;;;;;;5073523;28;20178;-90
2023/07/02 02:15:27;;;;;;;5.15;1.70;;;17.00;99.90;;;;;;5057415;28;20655;-90
2023/07/02 02:36:23;;;;;;;3.53;1.90;;;16.70;99.90;;;;;;5125540;23;20232;-89
2023/07/02 02:42:21;;;;;;;3.38;1.80;;;16.70;99.90;;;;;;5096553;28;20225;-91
2023/07/02 02:48:29;;;;;;;1.60;1.50;;;16.80;99.90;;;;;;5096617;28;20205;-88
2023/07/02 02:54:31;;;;;;;3.55;2.17;;;16.90;99.90;;;;;;5096433;28;20168;-90
2023/07/02 03:00:25;;;;;;;3.03;1.77;;;17.00;99.90;;;;;;5088598;28;20535;-89
2023/07/02 03:02:52;;;;;;;3.05;1.70;;;17.00;99.90;;;;;;5080962;28;20592;-90
2023/07/02 03:05:19;;;;;;;1.90;1.70;;;17.00;99.90;;;;;;5069956;28;20306;-91
2023/07/02 03:14:52;;;;;;;3.47;2.05;;;17.00;99.90;;;;;;5096323;28;20181;-89
2023/07/02 03:22:29;;;;;;;2.55;1.88;;;17.00;99.90;;;;;;5021499;28;20210;-90
2023/07/02 03:24:56;;;;;;;1.90;1.80;;;17.00;99.90;;;;;;4986490;28;20241;-91
2023/07/02 03:27:23;;;;;;;2.08;1.88;;;17.10;99.90;;;;;;5017462;28;20210;-89
2023/07/02 03:29:53;;;;;;;2.25;2.05;;;17.00;99.90;;;;;;5036707;28;20542;-90
2023/07/02 03:32:42;;;;;;;3.47;2.38;;;17.00;99.90;;;;;;5017889;28;20194;-89
2023/07/02 03:35:15;;;;;;;3.63;2.55;;;16.60;99.00;;;;;;5035749;28;20213;-89
2023/07/02 03:37:57;;;;;;;3.00;2.30;;;16.30;97.90;;;;;;5020698;28;20205;-91
2023/07/02 03:40:25;;;;;;;3.17;2.22;;;16.00;98.30;;;;;;5017931;28;20198;-91
2023/07/02 03:42:52;;;;;;;4.53;2.65;;;15.80;98.20;;;;;;5018048;28;20194;-90
2023/07/02 03:45:20;;;;;;;3.90;2.67;;;15.60;98.70;;;;;;5018493;28;20210;-89
2023/07/02 04:04:26;;;;;;;4.38;2.60;;;15.10;99.90;;;;;;4998959;28;20288;-90
2023/07/02 04:07:33;;;;;;;3.50;2.80;;;15.10;99.90;;;;;;4954667;29;20197;-89
2023/07/02 04:14:23;;;;;;;5.00;2.70;;;15.00;99.90;;;;;;5034962;28;20189;-90
2023/07/02 04:33:43;;;;;;;3.05;2.67;;;15.00;99.90;;;;;;5005364;28;20207;-90
2023/07/02 04:36:10;;;;;;;3.63;3.03;;;14.90;99.90;;;;;;5003762;28;20242;-92
2023/07/02 04:41:20;;;;;;;4.07;2.80;;;15.00;99.90;;;;;;5002880;28;20562;-90
2023/07/02 04:43:48;;;;;;;4.10;3.13;;;15.00;99.90;;;;;;5014358;28;20289;-91
2023/07/02 04:46:16;;;;;;;4.25;2.88;;;15.00;99.90;;;;;;5013353;28;20665;-90
2023/07/02 04:49:04;;;;;;;3.17;2.65;;;15.00;99.90;;;;;;5001817;28;20199;-89
2023/07/02 04:51:35;;;;;;;3.50;2.88;;;15.10;99.90;;;;;;5003114;28;20230;-90
2023/07/02 04:54:03;;;;;;;3.42;2.88;;;15.10;99.90;;;;;;5012957;28;20207;-90
2023/07/02 04:56:30;;;;;;;4.28;2.83;;;15.20;99.90;;;;;;5013226;28;20222;-90
2023/07/02 04:58:57;;;;;;;3.40;2.95;;;15.20;99.90;;;;;;5013422;28;20210;-89
2023/07/02 05:01:24;;;;;;;3.17;2.80;;;15.20;99.90;;;;;;5012994;28;20199;-89
2023/07/02 05:06:41;;;;;;;3.03;2.72;;;15.20;99.90;;;;;;5010133;28;20203;-90
2023/07/02 05:12:36;;;;;;;3.63;2.83;;;15.20;99.90;;;;;;5013142;28;20195;-89
2023/07/02 05:15:03;;;;;;;4.38;2.90;;;15.20;99.90;;;;;;5014053;28;20539;-89
2023/07/02 05:20:06;;;;;;;5.50;3.20;;;15.20;99.90;;;;;;5080693;22;20229;-88
2023/07/02 05:25:24;;;;;;;3.88;2.78;;;15.20;99.90;;;;;;4984030;28;20236;-90
2023/07/02 05:27:59;;;;;;;4.28;2.83;;;15.40;99.90;;;;;;4973300;28;20200;-89
2023/07/02 05:31:11;;;;;;;4.07;2.97;;;15.40;99.90;;;;;;4972802;28;20320;-90
2023/07/02 05:33:39;;;;;;;5.38;2.92;;;15.30;99.90;;;;;;4973635;28;20212;-90
2023/07/02 05:36:08;;;;;;;3.38;2.80;;;15.30;99.90;;;;;;4996863;28;20207;-90
2023/07/02 05:45:09;;;;;;;3.65;2.85;;;15.50;99.90;;;;;;5014118;28;20243;-90
2023/07/02 05:51:51;;;;;;;5.35;2.55;;;15.80;99.90;;;;;;5013780;28;20193;-89
2023/07/02 06:04:34;;;;;;;4.35;2.67;;;16.20;99.90;;;;;;4998446;28;20226;-88
2023/07/02 06:07:01;;;;;;;4.10;2.75;;;16.20;99.90;;;;;;4997721;28;20207;-89
2023/07/02 06:09:28;;;;;;;2.97;2.67;;;16.20;99.90;;;;;;4989386;28;20279;-88
2023/07/02 06:11:55;;;;;;;3.92;2.58;;;16.20;99.90;;;;;;4999199;28;20702;-90
2023/07/02 06:14:25;;;;;;;3.78;2.95;;;16.20;99.90;;;;;;4999899;28;20636;-90
2023/07/02 06:54:15;;;;;;;3.30;3.00;;;15.70;99.90;;;;;;5013315;28;20267;-90
2023/07/02 06:57:19;;;;;;;3.55;3.20;;;15.80;99.90;;;;;;5027021;28;20199;-90
2023/07/02 07:03:18;;;;;;;5.22;3.08;;;15.80;99.90;;;;;;5016091;28;20162;-90
2023/07/02 07:13:04;;;;;;;4.63;3.28;;;15.90;99.90;;;;;;5016536;28;20183;-91
2023/07/02 07:15:33;;;;;;;3.85;2.97;;;15.80;99.90;;;;;;5016219;28;20246;-90
2023/07/02 07:38:46;;;;;;;6.38;3.15;;;15.40;99.90;;;;;;5396948;22;20242;-90
2023/07/02 07:41:53;;;;;;;4.85;3.63;;;15.40;99.90;;;;;;5015366;28;20206;-90
2023/07/02 07:44:20;;;;;;;3.75;3.22;;;15.40;99.90;;;;;;4996278;28;20560;-90
2023/07/02 07:46:47;;;;;;;4.72;3.35;;;15.30;99.90;;;;;;4980061;28;20262;-89
2023/07/02 07:49:14;;;;;;;4.68;3.83;;;15.40;99.90;;;;;;5015137;28;20552;-91
2023/07/02 07:51:41;;;;;;;5.28;3.65;;;15.40;99.90;;;;;;4991616;28;20208;-90
2023/07/02 07:56:52;;;;;;;5.57;3.50;;;15.40;99.90;;;;;;5005145;28;20200;-90
2023/07/02 07:59:49;;;;;;;4.78;3.42;;;15.50;99.90;;;;;;4995495;28;20695;-89
2023/07/02 08:02:25;;;;;;;4.38;3.33;;;15.50;99.90;;;;;;4995828;28;20234;-90
2023/07/02 08:34:53;;;;;;;6.47;5.20;;;17.10;99.90;;;;;;5031633;28;20210;-90
2023/07/02 08:40:04;;;;;;;6.00;5.20;;;16.90;99.90;;;;;;5055068;28;20190;-93
2023/07/02 08:42:31;;;;;;;3.88;3.00;;;16.70;99.90;;;;;;5066040;28;20174;-93
2023/07/02 08:45:01;;;;;;;2.75;2.55;;;16.70;99.90;;;;;;5065262;28;20261;-93
2023/07/02 08:50:14;;;;;;;2.92;2.63;;;16.80;99.90;;;;;;5041827;28;20201;-91
2023/07/02 08:58:46;;;;;;;3.05;2.70;;;16.50;99.90;;;;;;5055665;28;20250;-94
2023/07/02 09:04:48;;;;;;;7.38;6.60;;;16.50;99.90;;;;;;5061145;28;20189;-95
2023/07/02 09:14:55;;;;;;;4.55;2.97;;;16.70;99.90;;;;;;4996853;28;20253;-96
2023/07/02 09:17:23;;;;;;;2.70;2.50;;;16.70;99.90;;;;;;4997276;28;20205;-94
2023/07/02 09:28:27;;;;;;;3.47;2.88;;;16.70;99.90;;;;;;5049733;28;20204;-93
2023/07/02 09:33:37;;;;;;;7.25;5.80;;;16.80;99.90;;;;;;5029560;28;20209;-93
2023/07/02 09:41:27;;;;;;;12.25;6.70;;;17.00;99.90;;;;;;5040857;28;20202;-94
2023/07/02 09:43:58;;;;;;;6.00;3.08;;;17.10;99.90;;;;;;5057461;28;20274;-92
2023/07/02 09:49:52;;;;;;;3.05;2.50;;;17.10;99.90;;;;;;4952416;28;20212;-94
2023/07/02 09:52:20;;;;;;;5.25;4.53;;;17.30;99.90;;;;;;4993648;28;20295;-94
2023/07/02 09:54:46;;;;;;;2.50;2.30;;;17.50;99.90;;;;;;5022207;28;20221;-94
2023/07/02 09:57:13;;;;;;;3.28;2.70;;;17.40;99.90;;;;;;5039877;28;20194;-93
2023/07/02 10:05:07;;;;;;;3.90;3.38;;;17.20;99.90;;;;;;5045358;28;20253;-93
2023/07/02 10:13:08;;;;;;;3.30;3.00;;;17.20;99.90;;;;;;5054147;28;20207;-94
2023/07/02 10:15:37;;;;;;;4.10;3.20;;;17.40;99.90;;;;;;5056320;28;20223;-94
2023/07/02 10:20:46;;;;;;;3.83;3.00;;;17.80;99.50;;;;;;5057126;28;20204;-93
2023/07/02 10:23:14;;;;;;;6.30;5.70;;;18.60;99.90;;;;;;5049858;28;20221;-92
2023/07/02 10:25:41;;;;;;;3.50;3.20;;;19.50;99.40;;;;;;5053808;28;20328;-90
2023/07/02 10:28:19;;;;;;;3.78;3.47;;;20.20;96.10;;;;;;5054401;28;20198;-90
2023/07/02 10:30:46;;;;;;;5.63;3.72;;;20.30;95.00;;;;;;5047870;28;20296;-90
2023/07/02 10:33:20;;;;;;;4.85;3.53;;;20.10;93.60;;;;;;5058435;28;20201;-91
2023/07/02 10:36:06;;;;;;;4.28;3.90;;;20.10;93.10;;;;;;5050953;28;20258;-91
2023/07/02 10:38:33;;;;;;;6.30;4.78;;;20.30;93.40;;;;;;5048904;28;20214;-89
2023/07/02 10:41:01;;;;;;;5.68;4.60;;;20.60;92.80;;;;;;5054672;28;20206;-90
2023/07/02 10:43:28;;;;;;;5.32;4.75;;;20.60;92.20;;;;;;5040479;28;20253;-91
2023/07/02 10:45:55;;;;;;;6.63;5.30;;;20.80;90.20;;;;;;5051905;28;20227;-90
2023/07/02 10:51:13;;;;;;;38.28;34.55;;;21.10;90.90;;;;;;5048391;28;20202;-89
2023/07/02 10:53:40;;;;;;;7.97;6.63;;;21.10;88.50;;;;;;5044725;28;20213;-90
2023/07/02 10:56:06;;;;;;;20.50;17.55;;;21.00;85.50;;;;;;5027744;28;20198;-89
2023/07/02 10:58:43;;;;;;;10.65;8.80;;;21.10;89.10;;;;;;5053098;28;20563;-89
2023/07/02 11:01:10;;;;;;;8.35;5.90;;;21.10;84.90;;;;;;5048229;28;20199;-89
2023/07/02 11:03:38;;;;;;;7.20;5.93;;;21.20;87.00;;;;;;5045898;28;20201;-89
2023/07/02 11:06:06;;;;;;;7.28;6.03;;;21.50;86.20;;;;;;5031045;28;20222;-91
2023/07/02 11:08:39;;;;;;;6.90;5.75;;;21.80;86.70;;;;;;5034969;28;20217;-91
2023/07/02 11:11:26;;;;;;;7.95;5.68;;;21.70;85.70;;;;;;5038002;28;20209;-89
2023/07/02 11:13:54;;;;;;;8.40;6.53;;;21.80;89.00;;;;;;5046788;28;20198;-89
2023/07/02 11:16:25;;;;;;;7.43;6.63;;;21.90;82.20;;;;;;5050160;28;20202;-90
2023/07/02 11:18:54;;;;;;;11.20;8.40;;;21.90;87.70;;;;;;5045520;28;20301;-89
2023/07/02 11:21:21;;;;;;;12.20;7.38;;;22.00;79.80;;;;;;5041450;28;20199;-89
2023/07/02 11:23:48;;;;;;;8.05;6.30;;;21.80;76.80;;;;;;5028861;28;20586;-88
2023/07/02 11:26:15;;;;;;;14.70;8.35;;;21.80;88.30;;;;;;5032432;28;20275;-88
2023/07/02 11:31:33;;;;;;;13.02;7.78;;;22.00;80.90;;;;;;5032194;28;20202;-88
2023/07/02 11:36:43;;;;;;;12.00;8.25;;;22.30;76.10;;;;;;5036095;28;20195;-89
2023/07/02 11:41:50;;;;;;;10.93;7.72;;;22.50;71.20;;;;;;5032989;28;20209;-90
2023/07/02 11:44:18;;;;;;;12.60;8.20;;;22.70;75.20;;;;;;5033741;28;20204;-90
2023/07/02 11:46:46;;;;;;;10.77;8.40;;;22.90;58.50;;;;;;5026534;28;20232;-90
2023/07/02 11:51:56;;;;;;;8.60;7.63;;;22.60;65.40;;;;;;5056152;28;20209;-89
2023/07/02 11:54:23;;;;;;;9.43;8.18;;;22.50;64.40;;;;;;5059797;28;20270;-91
2023/07/02 11:56:50;;;;;;;9.50;6.90;;;22.50;67.40;;;;;;5055262;28;20699;-88
2023/07/02 11:59:18;;;;;;;12.45;8.30;;;22.60;64.50;;;;;;5037451;28;20197;-87
2023/07/02 12:01:44;;;;;;;9.07;7.88;;;22.70;58.40;;;;;;5029261;28;20201;-88
2023/07/02 12:04:12;;;;;;;10.63;8.00;;;22.60;59.80;;;;;;5050113;28;20650;-89
2023/07/02 12:06:41;;;;;;;11.95;8.27;;;22.80;53.40;;;;;;5043856;28;20236;-86
2023/07/02 12:09:08;;;;;;;10.13;8.55;;;22.60;58.40;;;;;;5052298;28;20224;-88
2023/07/02 12:11:36;;;;;;;10.88;8.25;;;22.50;60.20;;;;;;5042611;28;20205;-88
2023/07/02 12:14:02;;;;;;;12.07;8.13;;;22.60;67.00;;;;;;5044919;28;20194;-88
2023/07/02 12:16:29;;;;;;;9.15;8.20;;;22.90;54.00;;;;;;5044141;28;20209;-87
2023/07/02 12:18:56;;;;;;;10.90;8.00;;;22.90;47.90;;;;;;5059575;28;20685;-88
2023/07/02 12:21:23;;;;;;;9.88;7.88;;;23.00;50.60;;;;;;5046481;28;20218;-89
2023/07/02 12:23:51;;;;;;;12.75;8.77;;;23.10;51.50;;;;;;5036274;28;20666;-90
2023/07/02 12:26:18;;;;;;;10.32;9.13;;;23.20;50.90;;;;;;5036072;28;20270;-93
2023/07/02 12:28:45;;;;;;;13.43;9.45;;;23.30;48.70;;;;;;5033899;28;20252;-93
2023/07/02 12:31:23;;;;;;;11.57;8.90;;;23.30;51.30;;;;;;5045191;28;20217;-89
2023/07/02 12:33:50;;;;;;;9.60;8.60;;;23.00;51.40;;;;;;5030922;28;20207;-89
2023/07/02 12:36:17;;;;;;;13.23;9.70;;;23.10;58.70;;;;;;5042949;28;20198;-88
2023/07/02 12:38:44;;;;;;;14.70;9.45;;;23.10;47.50;;;;;;5025723;28;20217;-89
2023/07/02 12:41:12;;;;;;;11.45;9.85;;;23.60;39.80;;;;;;5029585;28;20202;-88
2023/07/02 12:43:39;;;;;;;12.98;9.93;;;23.80;37.90;;;;;;5045844;28;21627;-90
2023/07/02 12:46:07;;;;;;;12.82;10.38;;;23.90;38.50;;;;;;5046206;28;20253;-89
2023/07/02 12:48:34;;;;;;;12.98;10.30;;;24.00;35.40;;;;;;5056002;28;20197;-91
2023/07/02 12:51:01;;;;;;;13.27;11.25;;;24.10;35.10;;;;;;5064801;28;20305;-95
2023/07/02 12:53:29;;;;;;;14.82;11.23;;;24.10;31.90;;;;;;5084931;23;20239;-92
2023/07/02 12:55:56;;;;;;;16.30;11.25;;;24.30;31.90;;;;;;5055169;23;20242;-91
2023/07/02 13:13:59;;;;;;;14.63;12.00;;;24.10;30.30;;;;;;6107582;23;20391;-90
2023/07/02 13:19:01;;;;;;;14.65;12.65;;;24.20;26.50;;;;;;6094154;23;20193;-90
2023/07/02 14:05:49;;;;;;;15.50;12.30;;;23.90;24.90;;;;;;5028879;28;20211;-93
2023/07/02 14:50:03;;;;;;;41.35;34.42;;;23.80;22.80;;;;;;5018429;28;20343;-92
2023/07/02 14:52:30;;;;;;;22.20;16.23;;;23.80;22.20;;;;;;5232907;22;20237;-91
2023/07/02 14:55:48;;;;;;;23.02;17.38;;;23.70;22.50;;;;;;5058219;28;20170;-93
2023/07/02 15:01:59;;;;;;;17.77;14.55;;;23.60;22.00;;;;;;5067744;28;20192;-91
2023/07/02 15:04:25;;;;;;;23.70;15.00;;;23.70;23.50;;;;;;5064141;28;20197;-90
2023/07/02 15:06:53;;;;;;;20.48;14.07;;;23.70;23.40;;;;;;5063396;28;20228;-91
2023/07/02 15:09:20;;;;;;;18.30;14.70;;;23.70;23.40;;;;;;5074049;28;20675;-92
2023/07/02 15:11:46;;;;;;;17.40;14.18;;;23.60;24.10;;;;;;5062338;28;20204;-89
2023/07/02 15:14:14;;;;;;;15.73;13.70;;;23.80;22.20;;;;;;5054779;28;20199;-88
2023/07/02 15:16:41;;;;;;;21.70;14.40;;;23.80;23.50;;;;;;5045164;28;20292;-89
2023/07/02 15:19:09;;;;;;;20.27;14.00;;;23.60;24.10;;;;;;5033784;28;20221;-89
2023/07/02 15:21:36;;;;;;;16.92;13.68;;;23.60;25.40;;;;;;5041310;28;20205;-89
2023/07/02 15:24:04;;;;;;;16.45;13.68;;;23.50;24.60;;;;;;5028360;28;20228;-89
2023/07/02 15:26:31;;;;;;;16.63;13.82;;;23.60;23.90;;;;;;5041336;28;20221;-87
2023/07/02 15:28:58;;;;;;;21.40;12.98;;;23.60;25.20;;;;;;5042247;28;20202;-88
2023/07/02 15:31:25;;;;;;;19.38;13.77;;;23.80;23.50;;;;;;5042088;28;20197;-90
2023/07/02 15:33:52;;;;;;;16.45;13.13;;;24.00;23.70;;;;;;5043489;28;20872;-89
2023/07/02 15:36:21;;;;;;;19.33;13.50;;;24.20;22.60;;;;;;5044854;28;20651;-88
2023/07/02 15:38:48;;;;;;;15.48;13.10;;;24.00;22.30;;;;;;5029147;28;20346;-87
2023/07/02 15:41:19;;;;;;;17.73;13.60;;;23.70;23.30;;;;;;5040626;28;20763;-88
2023/07/02 15:43:46;;;;;;;17.67;12.57;;;23.70;23.40;;;;;;5003931;28;20203;-87
2023/07/02 15:46:15;;;;;;;15.30;13.23;;;23.80;24.70;;;;;;5042266;28;20232;-88
2023/07/02 15:48:43;;;;;;;16.60;12.65;;;23.70;23.40;;;;;;5038105;28;20197;-88
2023/07/02 15:51:11;;;;;;;15.77;12.15;;;23.60;23.20;;;;;;5041153;28;20208;-88
2023/07/02 15:53:42;;;;;;;15.32;12.40;;;23.60;22.80;;;;;;5018428;28;20213;-87
2023/07/02 15:56:09;;;;;;;17.20;12.52;;;23.70;23.30;;;;;;5016636;28;20206;-91
2023/07/02 15:58:36;;;;;;;18.30;13.15;;;23.80;23.00;;;;;;5041282;28;20564;-89
2023/07/02 16:01:11;;;;;;;13.70;11.65;;;23.60;23.30;;;;;;5018668;28;20198;-86
2023/07/02 16:03:38;;;;;;;19.48;14.73;;;23.60;23.20;;;;;;5038972;28;20192;-89
2023/07/02 16:06:05;;;;;;;16.88;12.20;;;23.60;22.50;;;;;;5027143;28;20195;-87
2023/07/02 16:08:32;;;;;;;15.43;11.13;;;23.50;23.20;;;;;;5039251;28;20238;-88
2023/07/02 16:11:00;;;;;;;17.05;12.13;;;23.30;22.50;;;;;;5038828;28;20209;-85
2023/07/02 16:13:28;;;;;;;30.20;24.52;;;23.10;22.90;;;;;;5045616;28;20202;-90
2023/07/02 16:15:55;;;;;;;21.35;17.20;;;22.90;22.70;;;;;;5044460;28;20202;-88
2023/07/02 16:18:22;;;;;;;16.63;11.70;;;22.80;23.80;;;;;;5033654;28;20666;-89
2023/07/02 16:20:56;;;;;;;15.43;10.80;;;23.00;24.90;;;;;;5044249;28;20740;-89
2023/07/02 16:23:23;;;;;;;13.77;11.68;;;23.20;23.60;;;;;;5037557;28;20210;-86
2023/07/02 16:25:54;;;;;;;20.45;12.95;;;23.30;24.10;;;;;;5029475;28;20251;-89
2023/07/02 16:28:22;;;;;;;17.77;13.82;;;23.30;24.80;;;;;;5028934;28;20231;-89
2023/07/02 16:30:49;;;;;;;12.93;9.88;;;23.30;25.40;;;;;;5042869;28;20194;-89
2023/07/02 16:33:18;;;;;;;17.95;11.65;;;23.30;24.60;;;;;;5031716;28;20202;-89
2023/07/02 16:35:45;;;;;;;12.30;9.68;;;23.50;23.50;;;;;;5047979;28;20280;-88
2023/07/02 16:38:12;;;;;;;19.08;14.60;;;23.60;22.00;;;;;;5027853;28;20715;-89
2023/07/02 16:40:39;;;;;;;13.68;9.50;;;23.60;22.00;;;;;;5025044;28;20209;-90
2023/07/02 16:43:06;;;;;;;18.60;12.63;;;23.60;21.90;;;;;;5043023;28;20205;-89
2023/07/02 16:45:35;;;;;;;10.82;8.75;;;23.40;22.20;;;;;;5021350;28;20622;-90
2023/07/02 16:48:02;;;;;;;12.63;8.52;;;23.30;24.40;;;;;;5050906;28;20773;-91
2023/07/02 16:50:29;;;;;;;13.82;9.60;;;23.10;25.10;;;;;;5034706;28;20202;-89
2023/07/02 16:52:56;;;;;;;11.00;9.00;;;22.90;25.10;;;;;;5023157;28;20332;-87
2023/07/02 16:55:23;;;;;;;10.55;8.30;;;22.80;24.80;;;;;;5025508;28;20546;-86
2023/07/02 16:57:50;;;;;;;9.27;8.25;;;22.80;24.20;;;;;;5040764;28;20205;-88
2023/07/02 17:00:18;;;;;;;10.10;8.25;;;22.70;24.70;;;;;;5048682;28;20712;-86
2023/07/02 17:02:47;;;;;;;14.13;8.07;;;22.70;24.80;;;;;;5034191;28;20202;-89
2023/07/02 17:05:31;;;;;;;9.70;8.35;;;22.50;24.80;;;;;;5021285;28;20662;-94
2023/07/02 17:08:16;;;;;;;10.40;7.90;;;22.30;25.40;;;;;;5030440;28;20299;-90
2023/07/02 17:10:43;;;;;;;10.18;8.52;;;22.20;26.00;;;;;;5031187;28;20189;-92
2023/07/02 17:13:11;;;;;;;8.90;7.55;;;22.30;24.80;;;;;;5047032;28;20582;-91
2023/07/02 17:22:39;;;;;;;8.50;7.30;;;22.50;25.60;;;;;;5062409;28;20268;-92
2023/07/02 18:27:25;;;;;;;9.00;7.07;;;21.40;34.30;;;;;;5052738;28;20219;-92
2023/07/02 19:28:23;;;;;;;10.40;8.55;;;20.10;56.00;;;;;;6145458;22;20191;-91
2023/07/02 19:30:56;;;;;;;9.50;7.68;;;20.00;55.90;;;;;;5058733;28;20208;-92
